Time;durP1;ratioP1;P1;durP2;ratioP2;P2;SDS_P1;SDS_P2;PMS_P1;PMS_P2;Temp;Humidity;BMP_temperature;BMP_pressure;BME280_temperature;BME280_humidity;BME280_pressure;Samples;Min_cycle;Max_cycle;Signal;HPM_P1;HPM_P2
2022/10/23 00:02:10;;;;;;;11.73;7.88;;;12.70;80.40;;;;;;5033765;28;20184;-72
2022/10/23 00:04:36;;;;;;;9.88;7.40;;;12.60;80.20;;;;;;5036766;28;20733;-71
2022/10/23 00:07:01;;;;;;;9.73;7.72;;;12.60;80.50;;;;;;5034526;28;20215;-71
2022/10/23 00:09:27;;;;;;;7.88;6.55;;;12.60;80.50;;;;;;5036543;28;20211;-71
2022/10/23 00:11:53;;;;;;;9.27;7.20;;;12.60;79.80;;;;;;5030885;28;20190;-72
2022/10/23 00:14:21;;;;;;;9.80;7.15;;;12.70;80.10;;;;;;5031946;28;20188;-72
2022/10/23 00:16:47;;;;;;;13.43;6.45;;;12.70;80.20;;;;;;5031281;28;20242;-72
2022/10/23 00:19:13;;;;;;;9.30;6.60;;;12.70;80.30;;;;;;5044050;28;20195;-72
2022/10/23 00:21:39;;;;;;;8.23;6.35;;;12.70;79.50;;;;;;5036715;28;20176;-72
2022/10/23 00:24:05;;;;;;;9.02;7.30;;;12.70;79.20;;;;;;5036628;28;20615;-72
2022/10/23 00:26:31;;;;;;;12.13;6.70;;;12.70;79.90;;;;;;5035949;28;20189;-72
2022/10/23 00:28:57;;;;;;;10.55;8.00;;;12.70;79.30;;;;;;5033939;28;20204;-72
2022/10/23 00:31:23;;;;;;;11.30;7.00;;;12.70;80.30;;;;;;5038757;28;20551;-72
2022/10/23 00:33:50;;;;;;;20.55;7.72;;;12.70;80.10;;;;;;5035796;28;20179;-72
2022/10/23 00:36:18;;;;;;;8.50;6.53;;;12.70;80.20;;;;;;5034751;28;20180;-72
2022/10/23 00:38:44;;;;;;;8.07;6.50;;;12.70;79.50;;;;;;5032112;28;20370;-71
2022/10/23 00:41:15;;;;;;;10.45;7.13;;;12.70;79.00;;;;;;5037866;28;20203;-71
2022/10/23 00:44:00;;;;;;;12.65;7.32;;;12.70;78.70;;;;;;5040553;28;20226;-71
2022/10/23 00:46:27;;;;;;;12.02;7.78;;;12.70;79.80;;;;;;5035014;28;20238;-71
2022/10/23 00:48:53;;;;;;;9.35;6.40;;;12.70;80.20;;;;;;5035133;28;20223;-71
2022/10/23 00:51:19;;;;;;;11.13;7.47;;;12.70;79.60;;;;;;5037552;28;20194;-71
2022/10/23 00:53:45;;;;;;;10.27;7.57;;;12.70;80.00;;;;;;5037012;28;20188;-71
2022/10/23 00:56:11;;;;;;;10.38;6.43;;;12.60;79.70;;;;;;5028076;28;20185;-71
2022/10/23 00:58:37;;;;;;;12.95;7.53;;;12.60;79.80;;;;;;5033469;28;20672;-71
2022/10/23 01:01:17;;;;;;;12.55;6.93;;;12.70;80.50;;;;;;5031482;28;20186;-71
2022/10/23 01:03:42;;;;;;;9.02;7.45;;;12.70;80.60;;;;;;5034930;28;20184;-71
2022/10/23 01:06:28;;;;;;;11.05;7.55;;;12.70;80.90;;;;;;5041062;28;20186;-71
2022/10/23 01:09:35;;;;;;;9.50;6.85;;;12.60;80.90;;;;;;5037033;28;20220;-71
2022/10/23 01:12:33;;;;;;;6.45;5.95;;;12.60;79.40;;;;;;5033004;28;20194;-71
2022/10/23 01:15:13;;;;;;;11.68;7.30;;;12.60;80.00;;;;;;5034496;28;20188;-71
2022/10/23 01:17:50;;;;;;;18.90;8.20;;;12.50;79.20;;;;;;5035003;28;20570;-71
2022/10/23 01:20:21;;;;;;;13.05;8.18;;;12.50;78.40;;;;;;5031820;28;20610;-71
2022/10/23 01:23:28;;;;;;;17.90;11.15;;;12.50;80.20;;;;;;5031545;28;20694;-71
2022/10/23 01:26:11;;;;;;;17.95;11.90;;;12.50;80.70;;;;;;5033818;28;20184;-72
2022/10/23 01:28:51;;;;;;;21.13;12.68;;;12.50;80.30;;;;;;5036372;28;21088;-71
2022/10/23 01:31:26;;;;;;;20.27;13.00;;;12.40;79.50;;;;;;5031043;28;20198;-72
2022/10/23 01:33:59;;;;;;;19.40;12.45;;;12.40;80.60;;;;;;5034469;28;20187;-72
2022/10/23 01:36:28;;;;;;;21.60;12.32;;;12.40;80.30;;;;;;5034883;28;20188;-72
2022/10/23 01:39:23;;;;;;;23.85;12.43;;;12.30;79.90;;;;;;5030693;28;20633;-72
2022/10/23 01:41:58;;;;;;;22.23;13.38;;;12.40;81.70;;;;;;5029600;28;20216;-72
2022/10/23 01:44:42;;;;;;;23.90;13.10;;;12.30;81.70;;;;;;5033195;28;20196;-72
2022/10/23 01:47:10;;;;;;;20.58;12.35;;;12.10;83.60;;;;;;5032757;28;20188;-73
2022/10/23 01:49:39;;;;;;;21.75;11.93;;;12.00;84.00;;;;;;5032257;28;20220;-73
2022/10/23 01:52:07;;;;;;;19.17;11.82;;;11.90;83.70;;;;;;5042281;28;20728;-72
2022/10/23 01:54:38;;;;;;;17.33;11.07;;;11.90;83.90;;;;;;5033322;28;20190;-71
2022/10/23 01:57:07;;;;;;;16.30;11.85;;;11.80;84.50;;;;;;5039815;28;20266;-71
2022/10/23 01:59:43;;;;;;;19.13;10.88;;;11.70;85.00;;;;;;5031451;28;20267;-71
2022/10/23 02:02:10;;;;;;;19.02;11.40;;;11.70;84.70;;;;;;5036313;28;20748;-71
2022/10/23 02:04:41;;;;;;;19.08;11.23;;;11.70;84.30;;;;;;5071898;28;20184;-71
2022/10/23 02:07:07;;;;;;;16.80;10.98;;;11.70;83.10;;;;;;5034115;28;20242;-71
2022/10/23 02:09:33;;;;;;;15.98;10.40;;;11.70;82.50;;;;;;5035640;28;20238;-71
2022/10/23 02:12:12;;;;;;;17.33;11.15;;;11.70;82.80;;;;;;5037894;28;20281;-71
2022/10/23 02:15:04;;;;;;;14.77;10.02;;;11.70;82.30;;;;;;5037230;28;20175;-71
2022/10/23 02:17:48;;;;;;;13.93;9.13;;;11.70;81.30;;;;;;5031654;28;20207;-71
2022/10/23 02:20:27;;;;;;;18.42;10.27;;;11.80;81.40;;;;;;5034741;28;20590;-71
2022/10/23 02:23:06;;;;;;;15.48;9.45;;;11.80;81.50;;;;;;5028086;28;20622;-72
2022/10/23 02:25:58;;;;;;;21.10;10.82;;;11.80;80.80;;;;;;5033507;28;20180;-71
2022/10/23 02:28:29;;;;;;;16.30;9.73;;;11.90;80.00;;;;;;5032446;28;20210;-71
2022/10/23 02:31:01;;;;;;;17.23;10.25;;;12.00;82.80;;;;;;5036904;28;22300;-71
2022/10/23 02:33:28;;;;;;;16.40;10.25;;;12.00;83.20;;;;;;5031835;28;20189;-71
2022/10/23 02:35:54;;;;;;;15.77;9.65;;;12.00;84.60;;;;;;5034247;28;20286;-71
2022/10/23 02:38:31;;;;;;;14.35;10.73;;;11.90;85.10;;;;;;5035864;28;20190;-72
2022/10/23 02:41:17;;;;;;;14.05;8.50;;;11.90;84.60;;;;;;5031309;28;20834;-71
2022/10/23 02:44:07;;;;;;;13.63;9.02;;;11.80;84.80;;;;;;4950184;28;20195;-71
2022/10/23 02:46:48;;;;;;;13.05;7.90;;;11.80;84.50;;;;;;4952015;28;20294;-71
2022/10/23 02:49:41;;;;;;;9.75;7.28;;;11.90;84.10;;;;;;4949219;28;20281;-71
2022/10/23 02:52:13;;;;;;;12.57;7.93;;;11.90;83.40;;;;;;4953674;28;20190;-72
2022/10/23 02:54:56;;;;;;;12.23;7.88;;;11.90;83.70;;;;;;4954678;28;21846;-72
2022/10/23 02:57:33;;;;;;;16.65;7.68;;;11.90;83.20;;;;;;4949219;28;20205;-72
2022/10/23 03:00:08;;;;;;;9.80;7.95;;;11.90;83.60;;;;;;4951596;28;20188;-72
2022/10/23 03:02:42;;;;;;;11.18;8.32;;;11.90;83.40;;;;;;4955760;28;20672;-72
2022/10/23 03:05:14;;;;;;;11.05;8.07;;;11.90;84.00;;;;;;4949766;28;20204;-72
2022/10/23 03:07:40;;;;;;;13.98;7.95;;;11.90;83.70;;;;;;4953113;28;20764;-72
2022/10/23 03:10:08;;;;;;;19.77;7.93;;;12.00;83.50;;;;;;4954297;28;20186;-72
2022/10/23 03:12:34;;;;;;;26.55;8.90;;;12.00;83.10;;;;;;4955513;28;20670;-72
2022/10/23 03:14:59;;;;;;;16.02;8.32;;;12.00;83.20;;;;;;4957222;28;20774;-72
2022/10/23 03:17:25;;;;;;;10.85;7.53;;;12.10;83.20;;;;;;4952369;28;20198;-72
2022/10/23 03:19:51;;;;;;;10.18;7.57;;;12.10;82.90;;;;;;4959827;28;20197;-72
2022/10/23 03:22:16;;;;;;;11.13;7.07;;;12.10;82.90;;;;;;5033292;28;20180;-71
2022/10/23 03:24:42;;;;;;;10.50;7.40;;;12.10;83.10;;;;;;5035771;28;20608;-72
2022/10/23 03:27:10;;;;;;;16.00;8.43;;;12.20;82.90;;;;;;5032326;28;20204;-72
2022/10/23 03:29:36;;;;;;;9.60;7.65;;;12.20;83.00;;;;;;5034315;28;20224;-72
2022/10/23 03:32:02;;;;;;;11.40;7.05;;;12.20;82.40;;;;;;5032817;28;20236;-72
2022/10/23 03:34:28;;;;;;;9.05;7.53;;;12.30;82.60;;;;;;5029329;28;20265;-72
2022/10/23 03:36:54;;;;;;;12.32;7.65;;;12.30;82.40;;;;;;5030939;28;20256;-72
2022/10/23 03:39:20;;;;;;;13.32;6.85;;;12.30;82.10;;;;;;5034424;28;20754;-72
2022/10/23 03:41:46;;;;;;;10.02;6.57;;;12.30;81.80;;;;;;5039885;28;20183;-72
2022/10/23 03:44:11;;;;;;;9.40;7.47;;;12.40;81.90;;;;;;5033053;28;20240;-72
2022/10/23 03:46:37;;;;;;;15.25;8.23;;;12.40;82.20;;;;;;5039882;28;20195;-72
2022/10/23 03:49:03;;;;;;;13.52;7.53;;;12.50;82.10;;;;;;5066356;28;20756;-72
2022/10/23 03:51:29;;;;;;;10.98;7.78;;;12.50;82.10;;;;;;5033723;28;20187;-72
2022/10/23 03:53:54;;;;;;;11.05;7.18;;;12.60;81.80;;;;;;5034213;28;20815;-72
2022/10/23 03:56:20;;;;;;;10.10;7.07;;;12.60;81.60;;;;;;5034538;28;20184;-72
2022/10/23 03:58:46;;;;;;;7.25;6.30;;;12.70;81.40;;;;;;5028811;28;20188;-72
2022/10/23 04:01:12;;;;;;;8.82;6.82;;;12.70;81.30;;;;;;5031208;28;20187;-72
2022/10/23 04:03:38;;;;;;;11.40;6.45;;;12.70;81.00;;;;;;5028978;28;20310;-72
2022/10/23 04:06:04;;;;;;;12.65;7.20;;;12.70;81.30;;;;;;5035913;28;20188;-72
2022/10/23 04:08:29;;;;;;;10.27;6.93;;;12.70;81.00;;;;;;5032053;28;20787;-72
2022/10/23 04:10:55;;;;;;;8.38;5.40;;;12.70;81.10;;;;;;5030100;28;20241;-72
2022/10/23 04:13:21;;;;;;;5.43;4.82;;;12.60;81.00;;;;;;5031180;28;20210;-72
2022/10/23 04:15:51;;;;;;;4.80;4.38;;;12.60;80.20;;;;;;5032083;28;20224;-72
2022/10/23 04:18:17;;;;;;;4.32;3.92;;;12.60;80.00;;;;;;5032140;28;20189;-72
2022/10/23 04:20:43;;;;;;;6.53;4.93;;;12.70;79.30;;;;;;5034004;28;20213;-71
2022/10/23 04:23:09;;;;;;;8.45;4.57;;;12.80;79.10;;;;;;5036358;28;20298;-71
2022/10/23 04:25:34;;;;;;;7.10;4.70;;;12.90;78.50;;;;;;5034535;28;20674;-71
2022/10/23 04:28:00;;;;;;;9.10;4.25;;;13.00;78.20;;;;;;5029996;28;20697;-71
2022/10/23 04:30:25;;;;;;;5.97;3.70;;;13.10;77.30;;;;;;5035273;28;20898;-71
2022/10/23 04:32:52;;;;;;;3.75;3.45;;;13.30;76.90;;;;;;5034780;28;20285;-73
2022/10/23 04:35:19;;;;;;;4.35;3.58;;;13.30;76.50;;;;;;5035353;28;20576;-71
2022/10/23 04:37:45;;;;;;;3.95;2.92;;;13.40;76.20;;;;;;5031955;28;20180;-71
2022/10/23 04:40:11;;;;;;;3.00;2.80;;;13.50;75.60;;;;;;5029989;28;21051;-72
2022/10/23 04:42:36;;;;;;;4.35;2.78;;;13.60;75.10;;;;;;5031797;28;20573;-72
2022/10/23 04:45:03;;;;;;;3.78;3.47;;;13.70;74.60;;;;;;5030295;28;20176;-71
2022/10/23 04:47:29;;;;;;;6.10;2.92;;;13.80;74.10;;;;;;5036242;28;20217;-73
2022/10/23 04:49:54;;;;;;;6.47;2.53;;;13.90;74.30;;;;;;5032965;28;20689;-72
2022/10/23 04:52:20;;;;;;;3.97;3.17;;;14.00;74.60;;;;;;5032308;28;20189;-71
2022/10/23 04:54:46;;;;;;;4.03;2.75;;;14.10;74.10;;;;;;5036290;28;20191;-72
2022/10/23 04:57:12;;;;;;;4.32;2.55;;;14.20;73.30;;;;;;5036170;28;20184;-73
2022/10/23 04:59:38;;;;;;;9.77;2.70;;;14.20;73.20;;;;;;5033742;28;20692;-73
2022/10/23 05:02:04;;;;;;;2.53;2.08;;;14.30;72.90;;;;;;5031242;28;20188;-72
2022/10/23 05:04:29;;;;;;;2.53;2.38;;;14.30;73.00;;;;;;5032183;28;20187;-73
2022/10/23 05:06:55;;;;;;;5.10;3.75;;;14.40;72.60;;;;;;5039520;28;20180;-73
2022/10/23 05:09:21;;;;;;;4.03;3.75;;;14.40;73.10;;;;;;5037477;28;20226;-73
2022/10/23 05:11:47;;;;;;;8.82;4.53;;;14.40;73.30;;;;;;5036035;28;20184;-72
2022/10/23 05:14:13;;;;;;;9.68;4.97;;;14.30;73.60;;;;;;5036902;28;20717;-72
2022/10/23 05:16:42;;;;;;;7.57;5.10;;;14.30;73.60;;;;;;5031217;28;20325;-72
2022/10/23 05:19:11;;;;;;;11.20;5.47;;;14.20;73.50;;;;;;5038225;28;20212;-72
2022/10/23 05:21:39;;;;;;;6.10;5.45;;;14.20;73.90;;;;;;5036200;28;20188;-72
2022/10/23 05:24:05;;;;;;;7.65;5.63;;;14.10;73.80;;;;;;5037005;28;20191;-71
2022/10/23 05:26:31;;;;;;;5.63;5.05;;;14.00;74.10;;;;;;5037248;28;20619;-72
2022/10/23 05:28:57;;;;;;;5.55;3.67;;;14.00;74.10;;;;;;5041257;28;20215;-73
2022/10/23 05:31:24;;;;;;;7.75;3.67;;;14.00;74.10;;;;;;5029326;28;20180;-72
2022/10/23 05:33:51;;;;;;;4.25;3.85;;;14.00;74.30;;;;;;5030910;28;20184;-72
2022/10/23 05:36:17;;;;;;;3.88;3.58;;;14.00;74.20;;;;;;5036542;28;20206;-72
2022/10/23 05:38:44;;;;;;;4.93;3.08;;;14.00;74.10;;;;;;5030939;28;20191;-71
2022/10/23 05:41:10;;;;;;;6.03;2.65;;;14.00;73.60;;;;;;5065255;28;20871;-71
2022/10/23 05:43:36;;;;;;;3.40;3.13;;;14.00;73.80;;;;;;5037071;28;20190;-71
2022/10/23 05:46:06;;;;;;;7.05;2.95;;;14.10;74.10;;;;;;5033012;28;20215;-72
2022/10/23 05:48:34;;;;;;;2.70;2.33;;;14.20;74.40;;;;;;5035116;28;20784;-72
2022/10/23 05:51:08;;;;;;;3.50;3.20;;;14.30;74.10;;;;;;5029169;28;20724;-72
2022/10/23 05:53:34;;;;;;;2.92;2.83;;;14.30;74.30;;;;;;5036357;28;20186;-72
2022/10/23 05:56:06;;;;;;;3.25;3.05;;;14.50;74.60;;;;;;5036393;28;20184;-72
2022/10/23 05:58:33;;;;;;;2.33;2.22;;;14.60;74.10;;;;;;5033969;28;20172;-72
2022/10/23 06:01:03;;;;;;;2.35;2.15;;;14.80;74.90;;;;;;5039194;28;20708;-72
2022/10/23 06:03:29;;;;;;;2.92;2.60;;;14.80;76.10;;;;;;5036460;28;20176;-72
2022/10/23 06:05:54;;;;;;;3.47;2.78;;;15.00;75.50;;;;;;5033640;28;21035;-72
2022/10/23 06:08:20;;;;;;;2.88;2.65;;;15.10;75.50;;;;;;5031383;28;20215;-72
2022/10/23 06:10:46;;;;;;;10.43;3.22;;;15.30;75.20;;;;;;5034923;28;20180;-74
2022/10/23 06:13:11;;;;;;;6.05;3.00;;;15.40;76.30;;;;;;5033972;28;21059;-74
2022/10/23 06:15:37;;;;;;;5.95;3.58;;;15.50;75.80;;;;;;5030581;28;20218;-73
2022/10/23 06:18:04;;;;;;;3.42;2.83;;;15.50;77.10;;;;;;5032263;28;20262;-73
2022/10/23 06:20:29;;;;;;;3.05;2.88;;;15.70;75.90;;;;;;5037107;28;20183;-73
2022/10/23 06:22:55;;;;;;;3.30;3.00;;;15.80;75.90;;;;;;5034120;28;20187;-74
2022/10/23 06:25:21;;;;;;;3.10;2.90;;;15.90;76.10;;;;;;5032587;28;20233;-73
2022/10/23 06:27:46;;;;;;;3.72;2.80;;;16.00;76.20;;;;;;5038259;28;20207;-74
2022/10/23 06:30:12;;;;;;;3.63;2.88;;;16.10;77.70;;;;;;5031767;28;20740;-73
2022/10/23 06:32:38;;;;;;;2.40;2.10;;;16.10;77.60;;;;;;5025129;28;20200;-74
2022/10/23 06:35:04;;;;;;;2.47;2.35;;;16.20;78.20;;;;;;5026965;28;20180;-74
2022/10/23 06:37:32;;;;;;;2.65;2.42;;;16.20;78.70;;;;;;5038833;28;20175;-74
2022/10/23 06:39:58;;;;;;;4.13;2.17;;;16.30;79.00;;;;;;5033607;28;20188;-74
2022/10/23 06:42:24;;;;;;;2.67;2.47;;;16.30;79.20;;;;;;5031769;28;20247;-74
2022/10/23 06:44:49;;;;;;;3.63;2.63;;;16.40;79.20;;;;;;5028760;28;20181;-73
2022/10/23 06:47:15;;;;;;;2.70;2.45;;;16.50;79.10;;;;;;5032347;28;20196;-74
2022/10/23 06:49:41;;;;;;;2.92;2.50;;;16.50;79.30;;;;;;5028255;28;20767;-74
2022/10/23 06:52:07;;;;;;;4.07;2.55;;;16.50;79.40;;;;;;5034055;28;20277;-74
2022/10/23 06:54:33;;;;;;;7.20;2.42;;;16.50;79.40;;;;;;5029570;28;20184;-74
2022/10/23 06:56:58;;;;;;;3.03;2.38;;;16.50;79.70;;;;;;5030751;28;20188;-74
2022/10/23 06:59:24;;;;;;;2.70;2.28;;;16.80;78.60;;;;;;5028231;28;21389;-74
2022/10/23 07:01:50;;;;;;;3.88;2.65;;;17.10;78.50;;;;;;5036105;28;20184;-74
2022/10/23 07:04:15;;;;;;;3.78;2.50;;;17.40;77.50;;;;;;5030050;28;20180;-74
2022/10/23 07:06:41;;;;;;;2.83;2.67;;;17.90;77.00;;;;;;5028704;28;20184;-74
2022/10/23 07:09:08;;;;;;;2.80;2.35;;;18.30;76.30;;;;;;5030646;28;20273;-74
2022/10/23 07:11:33;;;;;;;2.75;2.53;;;18.90;74.70;;;;;;5033306;28;20572;-74
2022/10/23 07:13:59;;;;;;;2.55;2.45;;;19.40;73.70;;;;;;5024038;28;20181;-74
2022/10/23 07:16:25;;;;;;;2.67;2.50;;;20.00;72.00;;;;;;5030878;28;20192;-75
2022/10/23 07:18:59;;;;;;;3.60;2.53;;;20.50;70.60;;;;;;5032218;28;20181;-72
2022/10/23 07:21:27;;;;;;;3.17;2.85;;;20.70;69.70;;;;;;5059412;28;20688;-73
2022/10/23 07:23:53;;;;;;;3.72;2.83;;;21.00;69.10;;;;;;5035911;28;20260;-74
2022/10/23 07:26:18;;;;;;;3.22;2.45;;;21.30;68.80;;;;;;5030196;28;20180;-74
2022/10/23 07:28:47;;;;;;;3.67;3.47;;;21.70;68.00;;;;;;5032587;28;20472;-74
2022/10/23 07:31:12;;;;;;;5.70;2.33;;;22.10;67.20;;;;;;5028172;28;20271;-73
2022/10/23 07:33:38;;;;;;;3.22;3.03;;;22.50;66.00;;;;;;5031843;28;20267;-74
2022/10/23 07:36:06;;;;;;;2.83;2.63;;;22.70;65.00;;;;;;5029648;28;20194;-73
2022/10/23 07:38:32;;;;;;;4.65;2.75;;;22.70;64.30;;;;;;5032221;28;20176;-73
2022/10/23 07:40:59;;;;;;;3.75;3.40;;;22.90;64.00;;;;;;5034039;28;20669;-73
2022/10/23 07:43:25;;;;;;;3.38;3.17;;;23.00;64.50;;;;;;5032925;28;20245;-73
2022/10/23 07:45:51;;;;;;;8.60;3.13;;;23.30;63.60;;;;;;5029184;28;20191;-72
2022/10/23 07:48:18;;;;;;;4.13;3.47;;;23.50;63.70;;;;;;5032106;28;20262;-73
2022/10/23 07:50:44;;;;;;;3.08;2.88;;;23.70;62.80;;;;;;5027291;28;20330;-74
2022/10/23 07:53:16;;;;;;;3.10;2.90;;;23.90;61.90;;;;;;5034494;28;20278;-72
2022/10/23 07:55:42;;;;;;;4.28;2.88;;;24.00;61.00;;;;;;5029041;28;20604;-72
2022/10/23 07:58:08;;;;;;;3.08;2.85;;;24.20;60.80;;;;;;5032187;28;20259;-74
2022/10/23 08:00:34;;;;;;;3.03;2.72;;;24.40;60.10;;;;;;5029509;28;20183;-74
2022/10/23 08:02:59;;;;;;;3.15;2.85;;;24.60;61.10;;;;;;5034755;28;20184;-73
2022/10/23 08:05:25;;;;;;;3.38;3.08;;;24.70;60.60;;;;;;5036319;28;20263;-74
2022/10/23 08:07:51;;;;;;;2.45;2.42;;;24.90;60.70;;;;;;5026167;28;20713;-75
2022/10/23 08:10:16;;;;;;;3.13;2.35;;;25.00;59.30;;;;;;5035009;28;20313;-75
2022/10/23 08:12:42;;;;;;;3.15;2.00;;;25.10;59.90;;;;;;5033116;28;20180;-74
2022/10/23 08:15:08;;;;;;;2.40;2.30;;;25.30;58.80;;;;;;5030450;28;20181;-74
2022/10/23 08:17:34;;;;;;;2.42;2.33;;;25.40;59.50;;;;;;5030828;28;20313;-75
2022/10/23 08:19:59;;;;;;;1.83;1.83;;;25.60;59.40;;;;;;5028569;28;20250;-74
2022/10/23 08:22:25;;;;;;;4.38;2.50;;;25.40;59.10;;;;;;5032818;28;20585;-74
2022/10/23 08:24:51;;;;;;;3.00;2.70;;;25.30;59.50;;;;;;5034136;28;20241;-75
2022/10/23 08:27:16;;;;;;;2.45;2.35;;;25.30;59.50;;;;;;5031033;28;20176;-74
2022/10/23 08:29:42;;;;;;;2.53;2.40;;;25.70;59.60;;;;;;5032418;28;20216;-70
2022/10/23 08:32:08;;;;;;;7.57;2.50;;;26.00;59.10;;;;;;5061807;28;20188;-72
2022/10/23 08:34:36;;;;;;;6.32;2.78;;;26.10;59.10;;;;;;5031941;28;20657;-69
2022/10/23 08:37:02;;;;;;;2.50;2.40;;;26.30;57.80;;;;;;5026657;28;20855;-71
2022/10/23 08:39:28;;;;;;;2.60;2.00;;;26.30;58.00;;;;;;5036748;28;20184;-71
2022/10/23 08:41:53;;;;;;;1.98;1.88;;;26.40;58.20;;;;;;5036588;28;20212;-72
2022/10/23 08:44:25;;;;;;;3.80;1.60;;;26.40;58.00;;;;;;5036446;28;20190;-71
2022/10/23 08:47:18;;;;;;;2.17;2.10;;;26.30;57.70;;;;;;5038870;28;20292;-71
2022/10/23 08:49:50;;;;;;;1.90;1.80;;;26.40;58.00;;;;;;5031730;28;20220;-71
2022/10/23 08:52:43;;;;;;;2.83;2.25;;;26.60;57.90;;;;;;5031855;28;20185;-72
2022/10/23 08:55:15;;;;;;;3.03;1.83;;;27.00;57.60;;;;;;5031401;28;20271;-72
2022/10/23 08:58:03;;;;;;;2.30;2.17;;;27.30;57.40;;;;;;5036909;28;20567;-73
2022/10/23 09:00:29;;;;;;;1.70;1.70;;;27.50;55.80;;;;;;5028674;28;20180;-73
2022/10/23 09:02:55;;;;;;;2.35;1.80;;;27.50;56.10;;;;;;5032113;28;20186;-73
2022/10/23 09:05:31;;;;;;;1.52;1.52;;;27.50;55.60;;;;;;5025715;28;20238;-72
2022/10/23 09:08:33;;;;;;;2.45;1.30;;;27.40;57.20;;;;;;5035409;28;20207;-71
2022/10/23 09:11:41;;;;;;;1.80;1.70;;;27.70;55.30;;;;;;5030662;28;20268;-72
2022/10/23 09:14:28;;;;;;;2.03;1.92;;;28.10;55.10;;;;;;5029946;28;20187;-72
2022/10/23 09:17:27;;;;;;;1.77;1.67;;;28.20;54.70;;;;;;5035944;28;20199;-72
2022/10/23 09:20:17;;;;;;;1.73;1.63;;;28.30;55.00;;;;;;5036558;28;20283;-71
2022/10/23 09:22:44;;;;;;;1.45;1.30;;;28.50;54.10;;;;;;4964542;28;20726;-71
2022/10/23 09:25:16;;;;;;;1.42;1.42;;;28.80;54.50;;;;;;4965433;28;20194;-72
2022/10/23 09:27:51;;;;;;;1.77;1.67;;;29.00;53.10;;;;;;4964783;28;20289;-72
2022/10/23 09:30:38;;;;;;;2.38;1.45;;;29.20;53.50;;;;;;4965080;28;20679;-72
2022/10/23 09:33:22;;;;;;;1.40;1.30;;;29.60;52.60;;;;;;4963922;28;20186;-73
2022/10/23 09:35:54;;;;;;;1.40;1.30;;;29.70;53.00;;;;;;4963369;28;20324;-69
2022/10/23 09:38:38;;;;;;;2.50;1.80;;;29.90;52.20;;;;;;4964227;28;20194;-72
2022/10/23 09:41:18;;;;;;;1.70;1.60;;;29.80;52.00;;;;;;4964605;28;20212;-71
2022/10/23 09:43:44;;;;;;;1.30;1.20;;;30.10;51.60;;;;;;4963908;28;20316;-71
2022/10/23 09:46:10;;;;;;;0.90;0.90;;;29.70;51.70;;;;;;4964076;28;20735;-71
2022/10/23 09:48:37;;;;;;;2.05;1.30;;;29.10;51.70;;;;;;4963275;28;20228;-72
2022/10/23 09:51:17;;;;;;;1.20;1.20;;;28.80;53.00;;;;;;4964472;28;20225;-72
2022/10/23 09:54:01;;;;;;;2.13;1.20;;;29.00;52.50;;;;;;4963505;28;20252;-72
2022/10/23 09:56:38;;;;;;;1.00;1.00;;;29.20;51.80;;;;;;4964526;28;20194;-72
2022/10/23 09:59:20;;;;;;;0.95;0.93;;;29.40;52.60;;;;;;4978206;28;20705;-71
2022/10/23 10:01:57;;;;;;;1.05;1.05;;;29.70;52.20;;;;;;5034783;28;20172;-72
2022/10/23 10:04:41;;;;;;;1.75;1.05;;;29.60;51.90;;;;;;5028635;28;20196;-71
2022/10/23 10:07:33;;;;;;;1.00;1.00;;;29.90;50.90;;;;;;5028742;28;20296;-71
2022/10/23 10:09:58;;;;;;;0.85;0.85;;;30.30;50.30;;;;;;5027523;28;20200;-71
2022/10/23 10:13:09;;;;;;;1.15;1.15;;;30.70;49.30;;;;;;5034999;28;20191;-70
2022/10/23 10:15:49;;;;;;;2.25;0.88;;;31.20;49.20;;;;;;4953803;28;20226;-71
2022/10/23 10:18:52;;;;;;;2.05;0.93;;;31.60;48.20;;;;;;4947626;28;20293;-71
2022/10/23 10:21:31;;;;;;;1.10;1.10;;;32.00;47.40;;;;;;4953338;28;20219;-71
2022/10/23 10:24:20;;;;;;;1.08;1.00;;;32.00;47.30;;;;;;4955853;28;20194;-71
2022/10/23 10:27:04;;;;;;;0.90;0.90;;;32.20;48.40;;;;;;4957523;28;20218;-71
2022/10/23 10:29:45;;;;;;;0.80;0.80;;;32.00;46.50;;;;;;4948631;28;20640;-72
2022/10/23 10:32:10;;;;;;;0.70;0.70;;;31.90;48.90;;;;;;4952550;28;20954;-71
2022/10/23 10:35:26;;;;;;;2.40;0.75;;;31.80;47.00;;;;;;4950563;28;20198;-71
2022/10/23 10:37:57;;;;;;;0.73;0.57;;;31.70;46.80;;;;;;4904031;29;20918;-72
2022/10/23 10:40:37;;;;;;;0.82;0.82;;;31.80;46.70;;;;;;4906333;29;20271;-71
2022/10/23 10:43:14;;;;;;;0.68;0.68;;;32.10;47.80;;;;;;4905879;29;20188;-72
2022/10/23 10:46:01;;;;;;;0.70;0.70;;;32.40;47.30;;;;;;4931426;28;20208;-71
2022/10/23 10:48:40;;;;;;;0.70;0.70;;;32.70;46.00;;;;;;5009281;28;20227;-72
2022/10/23 10:51:11;;;;;;;1.75;0.70;;;32.90;45.70;;;;;;5009062;28;20191;-72
2022/10/23 10:54:06;;;;;;;0.65;0.65;;;33.00;46.40;;;;;;5011864;28;20191;-71
2022/10/23 10:56:37;;;;;;;0.80;0.80;;;33.10;45.50;;;;;;5011007;28;20188;-72
2022/10/23 10:59:11;;;;;;;4.32;0.88;;;33.20;45.60;;;;;;5013734;28;20682;-71
2022/10/23 11:02:00;;;;;;;0.75;0.75;;;33.30;45.40;;;;;;5011794;28;20206;-71
2022/10/23 11:04:50;;;;;;;1.20;1.10;;;33.50;47.50;;;;;;5008024;28;20196;-71
2022/10/23 11:07:22;;;;;;;0.60;0.60;;;33.70;46.50;;;;;;5014878;28;20185;-71
2022/10/23 11:09:49;;;;;;;1.95;0.95;;;33.90;47.20;;;;;;5010040;28;20220;-71
2022/10/23 11:12:21;;;;;;;1.50;0.90;;;34.10;45.50;;;;;;5027439;28;20598;-71
2022/10/23 11:14:48;;;;;;;0.80;0.80;;;34.20;44.70;;;;;;5031795;28;20186;-71
2022/10/23 11:17:37;;;;;;;0.98;0.98;;;34.30;44.60;;;;;;5037938;28;20187;-71
2022/10/23 11:20:26;;;;;;;0.70;0.70;;;34.30;44.80;;;;;;5038973;28;20183;-71
2022/10/23 11:23:07;;;;;;;3.60;0.70;;;34.40;45.10;;;;;;5034020;28;20188;-70
2022/10/23 11:26:23;;;;;;;0.70;0.70;;;34.30;44.70;;;;;;5032447;28;20182;-71
2022/10/23 11:29:02;;;;;;;0.65;0.65;;;34.10;43.60;;;;;;4943770;29;20230;-71
2022/10/23 11:31:38;;;;;;;1.20;0.82;;;34.00;45.80;;;;;;4927307;29;20229;-72
2022/10/23 11:34:24;;;;;;;0.70;0.70;;;34.00;46.00;;;;;;4944029;29;20198;-71
2022/10/23 11:36:53;;;;;;;0.80;0.80;;;34.00;44.80;;;;;;4943449;29;20220;-72
2022/10/23 11:39:23;;;;;;;0.95;0.93;;;34.00;45.20;;;;;;4943569;29;20203;-71
2022/10/23 11:41:53;;;;;;;0.70;0.70;;;33.90;44.70;;;;;;4943507;29;20186;-71
2022/10/23 11:44:38;;;;;;;0.90;0.90;;;33.90;44.80;;;;;;4943553;29;21146;-71
2022/10/23 11:47:34;;;;;;;2.13;1.00;;;33.90;45.30;;;;;;4927348;29;20356;-71
2022/10/23 11:50:05;;;;;;;1.02;1.02;;;33.90;44.80;;;;;;4943271;29;20651;-73
2022/10/23 11:52:32;;;;;;;1.30;1.00;;;33.90;44.80;;;;;;4943214;29;20756;-72
2022/10/23 11:55:25;;;;;;;0.70;0.70;;;33.70;46.40;;;;;;4943444;29;20201;-71
2022/10/23 11:58:06;;;;;;;1.27;1.17;;;33.70;44.50;;;;;;4941241;29;20205;-75
2022/10/23 12:00:37;;;;;;;1.27;0.77;;;33.40;45.50;;;;;;4942975;29;20575;-72
2022/10/23 12:03:04;;;;;;;0.70;0.70;;;33.30;46.30;;;;;;4946414;28;20204;-73
2022/10/23 12:05:39;;;;;;;1.75;1.08;;;33.20;44.90;;;;;;5032819;28;20226;-73
2022/10/23 12:08:17;;;;;;;0.98;0.73;;;33.00;45.10;;;;;;5032482;28;20226;-73
2022/10/23 12:10:45;;;;;;;0.82;0.82;;;32.90;44.90;;;;;;5032094;28;20183;-73
2022/10/23 12:13:49;;;;;;;0.90;0.90;;;32.70;47.00;;;;;;5032410;28;20325;-73
2022/10/23 12:16:15;;;;;;;0.70;0.70;;;32.60;45.30;;;;;;5031915;28;20195;-73
2022/10/23 12:18:55;;;;;;;0.60;0.60;;;32.50;45.40;;;;;;5027303;28;20181;-73
2022/10/23 12:21:27;;;;;;;0.80;0.65;;;32.40;46.00;;;;;;5032660;28;20257;-75
2022/10/23 12:23:52;;;;;;;4.32;0.95;;;32.40;46.30;;;;;;5037520;28;20180;-74
2022/10/23 12:26:27;;;;;;;1.80;1.00;;;32.30;46.00;;;;;;5037071;28;20262;-75
2022/10/23 12:28:56;;;;;;;0.80;0.77;;;32.20;45.10;;;;;;5030525;28;20272;-74
2022/10/23 12:31:46;;;;;;;0.70;0.70;;;32.10;45.50;;;;;;5030549;28;20176;-74
2022/10/23 12:34:23;;;;;;;0.90;0.73;;;31.90;45.80;;;;;;5028516;28;20684;-74
2022/10/23 12:37:20;;;;;;;2.05;0.80;;;31.80;46.30;;;;;;5063788;28;20686;-74
2022/10/23 12:39:54;;;;;;;0.57;0.57;;;31.60;46.20;;;;;;5031417;28;20186;-74
2022/10/23 12:42:23;;;;;;;0.73;0.73;;;31.60;46.70;;;;;;5026423;28;20286;-73
2022/10/23 12:45:13;;;;;;;1.77;0.82;;;31.60;46.30;;;;;;5030793;28;20183;-74
2022/10/23 12:47:39;;;;;;;2.55;0.60;;;31.40;45.70;;;;;;5030937;28;20234;-73
2022/10/23 12:50:17;;;;;;;0.60;0.60;;;31.30;46.30;;;;;;5033086;28;20204;-72
2022/10/23 12:52:57;;;;;;;0.85;0.47;;;31.20;46.50;;;;;;5030064;28;20180;-73
2022/10/23 12:55:25;;;;;;;0.73;0.73;;;31.10;47.50;;;;;;5030543;28;20266;-72
2022/10/23 12:57:52;;;;;;;0.60;0.60;;;31.00;46.20;;;;;;5026088;28;20242;-73
2022/10/23 13:00:21;;;;;;;1.95;0.70;;;30.90;46.90;;;;;;5030209;28;20191;-73
2022/10/23 13:03:00;;;;;;;0.60;0.60;;;30.70;47.30;;;;;;5034160;28;20271;-72
2022/10/23 13:05:26;;;;;;;0.70;0.70;;;30.70;47.10;;;;;;5026739;28;20959;-72
2022/10/23 13:07:53;;;;;;;0.75;0.75;;;30.70;47.50;;;;;;5034011;28;20180;-72
2022/10/23 13:10:21;;;;;;;0.55;0.55;;;30.70;47.70;;;;;;5030276;28;20191;-71